createdAt,value
2017-07-16T00:00:37.765Z,49.00
2017-07-16T00:03:06.250Z,48.60
2017-07-16T00:05:34.319Z,49.30
2017-07-16T00:08:02.507Z,50.10
2017-07-16T00:10:30.582Z,50.40
2017-07-16T00:12:58.738Z,50.70
2017-07-16T00:15:26.810Z,50.30
2017-07-16T00:17:54.987Z,50.00
2017-07-16T00:20:23.042Z,49.80
2017-07-16T00:22:51.542Z,49.40
2017-07-16T00:25:19.627Z,49.30
2017-07-16T00:27:48.091Z,50.10
2017-07-16T00:30:16.146Z,50.10
2017-07-16T00:32:44.339Z,50.00
2017-07-16T00:35:13.231Z,50.30
2017-07-16T00:37:41.679Z,49.90
2017-07-16T00:40:09.754Z,49.90
2017-07-16T00:42:37.843Z,50.20
2017-07-16T00:45:05.900Z,50.60
2017-07-16T00:47:34.346Z,50.60
2017-07-16T00:50:02.418Z,50.70
2017-07-16T00:52:30.572Z,51.30
2017-07-16T00:54:58.737Z,50.70
2017-07-16T00:57:26.793Z,50.80
2017-07-16T00:59:54.967Z,50.50
2017-07-16T01:02:23.454Z,50.40
2017-07-16T01:04:51.994Z,50.60
2017-07-16T01:07:20.936Z,51.60
2017-07-16T01:09:48.991Z,51.10
2017-07-16T01:12:17.174Z,51.00
2017-07-16T01:14:45.244Z,51.10
2017-07-16T01:17:13.302Z,51.10
2017-07-16T01:19:41.907Z,51.00
2017-07-16T01:22:09.978Z,50.90
2017-07-16T01:24:38.451Z,50.90
2017-07-16T01:27:06.635Z,51.50
2017-07-16T01:29:34.698Z,49.80
2017-07-16T01:32:02.753Z,49.70
2017-07-16T01:34:30.846Z,49.40
2017-07-16T01:36:58.909Z,48.90
2017-07-16T01:39:26.986Z,49.50
2017-07-16T01:41:55.096Z,50.00
2017-07-16T01:44:23.135Z,50.60
2017-07-16T01:46:51.606Z,51.00
2017-07-16T01:49:20.095Z,49.20
2017-07-16T01:51:48.271Z,50.30
2017-07-16T01:54:16.338Z,51.00
2017-07-16T01:56:44.387Z,49.40
2017-07-16T01:59:12.463Z,49.10
2017-07-16T02:01:40.541Z,49.70
2017-07-16T02:04:08.627Z,50.00
2017-07-16T02:06:36.802Z,50.00
2017-07-16T02:09:04.874Z,50.50
2017-07-16T02:11:33.326Z,50.10
2017-07-16T02:14:01.837Z,49.80
2017-07-16T02:16:29.902Z,49.50
2017-07-16T02:18:57.974Z,49.70
2017-07-16T02:21:26.879Z,49.50
2017-07-16T02:23:55.354Z,49.40
2017-07-16T02:26:23.402Z,50.00
2017-07-16T02:28:51.870Z,50.00
2017-07-16T02:31:20.691Z,50.50
2017-07-16T02:33:49.200Z,49.80
2017-07-16T02:36:17.350Z,49.80
2017-07-16T02:38:45.405Z,50.20
2017-07-16T02:41:13.597Z,49.30
2017-07-16T02:43:42.078Z,49.40
2017-07-16T02:46:10.161Z,50.00
2017-07-16T02:48:38.326Z,50.10
2017-07-16T02:51:06.498Z,50.70
2017-07-16T02:53:34.547Z,51.20
2017-07-16T02:56:02.637Z,49.60
2017-07-16T02:58:30.818Z,49.70
2017-07-16T03:00:58.997Z,50.30
2017-07-16T03:03:28.203Z,51.20
2017-07-16T03:05:56.766Z,50.50
2017-07-16T03:08:24.822Z,50.30
2017-07-16T03:10:52.893Z,50.30
2017-07-16T03:13:21.726Z,50.60
2017-07-16T03:15:49.875Z,50.60
2017-07-16T03:18:17.947Z,50.30
2017-07-16T03:20:46.026Z,51.00
2017-07-16T03:23:14.093Z,50.70
2017-07-16T03:25:42.176Z,50.30
2017-07-16T03:28:11.050Z,50.50
2017-07-16T03:30:39.498Z,51.30
2017-07-16T03:33:07.631Z,51.50
2017-07-16T03:35:35.705Z,51.90
2017-07-16T03:38:03.758Z,51.60
2017-07-16T03:40:31.830Z,51.90
2017-07-16T03:42:59.908Z,52.00
2017-07-16T03:45:27.982Z,52.40
2017-07-16T03:47:56.029Z,53.00
2017-07-16T03:50:24.161Z,53.00
2017-07-16T03:52:52.238Z,52.70
2017-07-16T03:55:20.286Z,53.00
2017-07-16T03:57:48.338Z,51.50
2017-07-16T04:00:16.422Z,52.10
2017-07-16T04:02:44.480Z,51.80
2017-07-16T04:05:12.534Z,51.40
2017-07-16T04:07:40.617Z,51.90
2017-07-16T04:10:08.665Z,52.30
2017-07-16T04:12:36.723Z,50.80
2017-07-16T04:15:05.566Z,51.20
2017-07-16T04:17:33.618Z,51.10
2017-07-16T04:20:01.694Z,51.10
2017-07-16T04:22:29.769Z,51.10
2017-07-16T04:24:57.855Z,51.70
2017-07-16T04:27:25.919Z,51.80
2017-07-16T04:29:54.006Z,52.00
2017-07-16T04:32:22.091Z,51.70
2017-07-16T04:34:50.142Z,50.50
2017-07-16T04:37:18.190Z,51.00
2017-07-16T04:39:46.667Z,50.60
2017-07-16T04:42:14.849Z,50.80
2017-07-16T04:44:42.942Z,51.10
2017-07-16T04:47:10.993Z,51.60
2017-07-16T04:49:39.087Z,52.30
2017-07-16T04:52:07.329Z,52.90
2017-07-16T04:54:35.414Z,52.90
2017-07-16T04:57:03.591Z,52.40
2017-07-16T04:59:31.667Z,52.00
2017-07-16T05:01:59.710Z,52.40
2017-07-16T05:04:27.802Z,52.10
2017-07-16T05:06:55.878Z,52.60
2017-07-16T05:09:23.955Z,52.90
2017-07-16T05:11:52.790Z,52.70
2017-07-16T05:14:21.639Z,52.50
2017-07-16T05:16:50.214Z,51.00
2017-07-16T05:19:18.267Z,51.50
2017-07-16T05:21:46.742Z,51.90
2017-07-16T05:24:14.838Z,52.20
2017-07-16T05:26:42.911Z,52.70
2017-07-16T05:29:11.078Z,54.10
2017-07-16T05:31:39.155Z,53.80
2017-07-16T05:34:07.439Z,54.40
2017-07-16T05:36:35.511Z,53.40
2017-07-16T05:39:03.570Z,53.10
2017-07-16T05:41:31.750Z,52.20
2017-07-16T05:44:00.209Z,53.10
2017-07-16T05:46:28.265Z,53.60
2017-07-16T05:48:56.783Z,51.40
2017-07-16T05:51:24.861Z,51.90
2017-07-16T05:53:52.926Z,52.10
2017-07-16T05:56:21.010Z,52.60
2017-07-16T05:58:49.077Z,52.10
2017-07-16T06:01:17.144Z,52.30
2017-07-16T06:03:46.213Z,53.10
2017-07-16T06:06:15.029Z,51.60
2017-07-16T06:08:43.199Z,51.50
2017-07-16T06:11:11.273Z,50.80
2017-07-16T06:13:39.350Z,51.40
2017-07-16T06:16:07.825Z,50.90
2017-07-16T06:18:35.904Z,51.40
2017-07-16T06:21:04.087Z,50.30
2017-07-16T06:23:32.141Z,50.30
2017-07-16T06:26:00.322Z,48.50
2017-07-16T06:28:28.394Z,47.90
2017-07-16T06:30:56.463Z,48.40
2017-07-16T06:33:24.616Z,48.40
2017-07-16T06:35:52.665Z,48.40
2017-07-16T06:38:21.511Z,48.30
2017-07-16T06:40:49.675Z,48.30
2017-07-16T06:43:17.747Z,47.80
2017-07-16T06:45:45.919Z,49.30
2017-07-16T06:48:13.990Z,46.60
2017-07-16T06:50:42.069Z,46.60
2017-07-16T06:53:10.147Z,47.60
2017-07-16T06:55:38.197Z,47.50
2017-07-16T06:58:07.706Z,48.10
2017-07-16T07:00:35.886Z,48.30
2017-07-16T07:03:03.958Z,49.00
2017-07-16T07:05:32.033Z,48.10
2017-07-16T07:08:01.330Z,47.30
2017-07-16T07:10:29.397Z,45.90
2017-07-16T07:12:58.611Z,46.30
2017-07-16T07:15:27.193Z,45.80
2017-07-16T07:17:55.239Z,46.30
2017-07-16T07:20:23.295Z,45.40
2017-07-16T07:22:52.121Z,46.40
2017-07-16T07:25:20.193Z,44.90
2017-07-16T07:27:48.257Z,45.50
2017-07-16T07:30:16.322Z,45.50
2017-07-16T07:32:44.374Z,45.20
2017-07-16T07:35:12.470Z,44.40
2017-07-16T07:37:40.514Z,46.00
2017-07-16T07:40:08.566Z,43.50
2017-07-16T07:42:36.649Z,44.20
2017-07-16T07:45:05.471Z,43.20
2017-07-16T07:47:33.525Z,43.20
2017-07-16T07:50:01.605Z,42.90
2017-07-16T07:52:29.658Z,44.90
2017-07-16T07:54:58.478Z,44.60
2017-07-16T07:57:26.558Z,43.10
2017-07-16T07:59:55.048Z,42.90
2017-07-16T08:02:23.114Z,42.70
2017-07-16T08:04:51.162Z,43.20
2017-07-16T08:07:19.263Z,43.40
2017-07-16T08:09:47.316Z,42.80
2017-07-16T08:12:15.374Z,42.00
2017-07-16T08:14:43.457Z,42.70
2017-07-16T08:17:11.511Z,43.30
2017-07-16T08:19:39.570Z,41.70
2017-07-16T08:22:07.689Z,42.30
2017-07-16T08:24:35.741Z,42.70
2017-07-16T08:27:03.811Z,42.10
2017-07-16T08:29:31.921Z,42.40
2017-07-16T08:31:59.963Z,42.70
2017-07-16T08:34:28.039Z,42.60
2017-07-16T08:36:56.089Z,43.20
2017-07-16T08:39:24.547Z,42.70
2017-07-16T08:41:52.630Z,42.80
2017-07-16T08:44:21.449Z,42.80
2017-07-16T08:46:49.498Z,42.70
2017-07-16T08:49:17.582Z,40.50
2017-07-16T08:51:45.634Z,40.10
2017-07-16T08:54:14.458Z,41.30
2017-07-16T08:56:42.634Z,41.20
2017-07-16T08:59:10.702Z,40.00
2017-07-16T09:01:38.779Z,40.50
2017-07-16T09:04:06.962Z,39.00
2017-07-16T09:06:35.022Z,38.20
2017-07-16T09:09:03.122Z,38.70
2017-07-16T09:11:31.271Z,38.60
2017-07-16T09:13:59.335Z,38.30
2017-07-16T09:16:27.410Z,38.50
2017-07-16T09:18:55.590Z,37.80
2017-07-16T09:21:23.762Z,36.70
2017-07-16T09:23:51.822Z,36.90
2017-07-16T09:26:20.320Z,37.00
2017-07-16T09:28:48.386Z,35.60
2017-07-16T09:31:16.551Z,34.70
2017-07-16T09:33:44.634Z,34.20
2017-07-16T09:36:12.708Z,34.80
2017-07-16T09:38:40.883Z,35.50
2017-07-16T09:41:08.954Z,34.90
2017-07-16T09:43:37.048Z,35.80
2017-07-16T09:46:05.203Z,35.00
2017-07-16T09:48:33.278Z,35.70
2017-07-16T09:51:01.458Z,34.20
2017-07-16T09:53:29.518Z,34.70
2017-07-16T09:55:57.686Z,34.30
2017-07-16T09:58:25.765Z,34.90
2017-07-16T10:00:53.942Z,32.70
2017-07-16T10:03:22.109Z,33.10
2017-07-16T10:05:50.172Z,33.90
2017-07-16T10:08:18.258Z,33.20
2017-07-16T10:10:46.428Z,35.30
2017-07-16T10:13:14.483Z,33.80
2017-07-16T10:15:42.580Z,32.70
2017-07-16T10:18:10.649Z,30.90
2017-07-16T10:20:38.815Z,31.50
2017-07-16T10:23:06.897Z,31.20
2017-07-16T10:25:34.961Z,32.00
2017-07-16T10:28:03.075Z,32.90
2017-07-16T10:30:31.154Z,34.10
2017-07-16T10:32:59.279Z,34.50
2017-07-16T10:35:27.329Z,33.30
2017-07-16T10:37:55.415Z,34.10
2017-07-16T10:40:23.491Z,33.90
2017-07-16T10:42:51.577Z,35.70
2017-07-16T10:45:19.634Z,34.90
2017-07-16T10:47:47.714Z,35.60
2017-07-16T10:50:15.890Z,36.30
2017-07-16T10:52:43.943Z,36.10
2017-07-16T10:55:12.030Z,36.20
2017-07-16T10:57:40.207Z,36.60
2017-07-16T11:00:08.378Z,37.70
2017-07-16T11:02:36.429Z,38.10
2017-07-16T11:05:04.679Z,37.70
2017-07-16T11:07:32.730Z,39.10
2017-07-16T11:10:00.882Z,39.00
2017-07-16T11:12:28.938Z,39.40
2017-07-16T11:14:57.024Z,39.50
2017-07-16T11:17:25.078Z,39.00
2017-07-16T11:19:53.160Z,39.60
2017-07-16T11:22:21.339Z,37.80
2017-07-16T11:24:49.391Z,36.90
2017-07-16T11:27:17.478Z,37.70
2017-07-16T11:29:45.649Z,36.60
2017-07-16T11:32:13.718Z,35.70
2017-07-16T11:34:41.898Z,35.30
2017-07-16T11:37:09.985Z,34.30
2017-07-16T11:39:38.156Z,34.70
2017-07-16T11:42:06.310Z,33.80
2017-07-16T11:44:34.396Z,34.60
2017-07-16T11:47:02.566Z,34.90
2017-07-16T11:49:30.614Z,35.50
2017-07-16T11:51:58.702Z,34.00
2017-07-16T11:54:26.773Z,35.00
2017-07-16T11:56:54.855Z,33.60
2017-07-16T11:59:22.941Z,30.10
2017-07-16T12:01:51.098Z,29.60
2017-07-16T12:04:19.279Z,29.50
2017-07-16T12:06:47.415Z,29.90
2017-07-16T12:09:15.522Z,29.70
2017-07-16T12:11:43.579Z,30.10
2017-07-16T12:14:12.175Z,31.60
2017-07-16T12:16:40.242Z,32.50
2017-07-16T12:19:08.298Z,34.30
2017-07-16T12:21:36.799Z,34.60
2017-07-16T12:24:05.799Z,34.50
2017-07-16T12:26:33.977Z,34.60
2017-07-16T12:29:02.451Z,33.30
2017-07-16T12:31:30.505Z,32.80
2017-07-16T12:33:58.591Z,33.00
2017-07-16T12:36:26.647Z,36.60
2017-07-16T12:38:54.695Z,33.10
2017-07-16T12:41:23.542Z,33.90
2017-07-16T12:43:51.594Z,33.80
2017-07-16T12:46:19.650Z,32.40
2017-07-16T12:48:47.737Z,31.00
2017-07-16T12:51:15.794Z,31.30
2017-07-16T12:53:43.881Z,31.10
2017-07-16T12:56:12.690Z,31.10
2017-07-16T12:58:40.739Z,30.50
2017-07-16T13:01:08.834Z,30.60
2017-07-16T13:03:36.986Z,30.80
2017-07-16T13:06:05.058Z,30.50
2017-07-16T13:08:33.258Z,30.70
2017-07-16T13:11:01.314Z,31.10
2017-07-16T13:13:29.369Z,31.50
2017-07-16T13:15:57.445Z,31.90
2017-07-16T13:18:25.499Z,32.20
2017-07-16T13:20:53.605Z,32.10
2017-07-16T13:23:22.079Z,32.80
2017-07-16T13:25:50.527Z,32.10
2017-07-16T13:28:19.450Z,32.40
2017-07-16T13:30:47.502Z,32.70
2017-07-16T13:33:15.599Z,34.10
2017-07-16T13:35:43.670Z,35.00
2017-07-16T13:38:12.879Z,33.40
2017-07-16T13:40:40.930Z,33.10
2017-07-16T13:43:09.626Z,32.40
2017-07-16T13:45:37.690Z,31.60
2017-07-16T13:48:05.742Z,30.20
2017-07-16T13:50:33.830Z,30.00
2017-07-16T13:53:01.886Z,30.80
2017-07-16T13:55:29.977Z,30.90
2017-07-16T13:57:58.061Z,31.40
2017-07-16T14:00:26.148Z,28.00
2017-07-16T14:02:54.293Z,27.20
2017-07-16T14:05:22.368Z,27.80
2017-07-16T14:07:50.562Z,28.30
2017-07-16T14:10:18.640Z,28.50
2017-07-16T14:12:46.685Z,29.40
2017-07-16T14:15:14.758Z,30.00
2017-07-16T14:17:42.838Z,30.80
2017-07-16T14:20:11.002Z,32.40
2017-07-16T14:22:39.078Z,33.50
2017-07-16T14:25:07.162Z,34.20
2017-07-16T14:27:35.218Z,35.50
2017-07-16T14:30:03.299Z,35.60
2017-07-16T14:32:31.466Z,36.20
2017-07-16T14:34:59.950Z,35.20
2017-07-16T14:37:28.126Z,35.50
2017-07-16T14:39:56.188Z,35.30
2017-07-16T14:42:24.679Z,35.30
2017-07-16T14:44:52.755Z,34.60
2017-07-16T14:47:20.827Z,35.10
2017-07-16T14:49:48.941Z,35.50
2017-07-16T14:52:17.765Z,32.80
2017-07-16T14:54:45.824Z,32.70
2017-07-16T14:57:14.750Z,33.20
2017-07-16T14:59:42.802Z,34.00
2017-07-16T15:02:10.859Z,35.40
2017-07-16T15:04:39.698Z,35.70
2017-07-16T15:07:07.758Z,35.60
2017-07-16T15:09:35.844Z,36.30
2017-07-16T15:12:03.894Z,37.10
2017-07-16T15:14:31.957Z,37.10
2017-07-16T15:17:00.042Z,37.10
2017-07-16T15:19:28.136Z,37.30
2017-07-16T15:21:56.155Z,38.20
2017-07-16T15:24:24.238Z,36.90
2017-07-16T15:26:52.293Z,37.40
2017-07-16T15:29:21.114Z,37.50
2017-07-16T15:31:49.190Z,38.00
2017-07-16T15:34:17.246Z,37.70
2017-07-16T15:36:45.310Z,37.70
2017-07-16T15:39:14.166Z,37.30
2017-07-16T15:41:42.214Z,37.70
2017-07-16T15:44:10.262Z,37.30
2017-07-16T15:46:38.354Z,36.70
2017-07-16T15:49:06.406Z,37.30
2017-07-16T15:51:34.463Z,37.80
2017-07-16T15:54:02.587Z,36.60
2017-07-16T15:56:30.726Z,37.60
2017-07-16T15:58:58.799Z,37.40
2017-07-16T16:01:26.859Z,37.80
2017-07-16T16:03:56.167Z,38.90
2017-07-16T16:06:24.223Z,38.90
2017-07-16T16:08:52.315Z,38.10
2017-07-16T16:11:21.263Z,38.20
2017-07-16T16:13:50.099Z,39.00
2017-07-16T16:16:18.206Z,38.10
2017-07-16T16:18:46.655Z,39.10
2017-07-16T16:21:14.718Z,39.70
2017-07-16T16:23:44.038Z,39.80
2017-07-16T16:26:12.202Z,38.70
2017-07-16T16:28:40.262Z,39.50
2017-07-16T16:31:08.421Z,40.10
2017-07-16T16:33:36.865Z,39.80
2017-07-16T16:36:04.946Z,40.70
2017-07-16T16:38:33.794Z,41.00
2017-07-16T16:41:01.846Z,40.40
2017-07-16T16:43:29.921Z,40.40
2017-07-16T16:45:58.095Z,40.90
2017-07-16T16:48:26.171Z,40.80
2017-07-16T16:50:54.251Z,41.30
2017-07-16T16:53:22.334Z,41.40
2017-07-16T16:55:50.486Z,41.30
2017-07-16T16:58:18.563Z,41.80
2017-07-16T17:00:46.745Z,41.80
2017-07-16T17:03:14.798Z,42.50
2017-07-16T17:05:42.884Z,43.00
2017-07-16T17:08:11.054Z,42.90
2017-07-16T17:10:39.225Z,43.10
2017-07-16T17:13:07.303Z,43.20
2017-07-16T17:15:35.350Z,44.30
2017-07-16T17:18:03.450Z,44.70
2017-07-16T17:20:31.522Z,44.00
2017-07-16T17:22:59.587Z,43.80
2017-07-16T17:25:27.673Z,44.30
2017-07-16T17:27:55.834Z,43.90
2017-07-16T17:30:23.906Z,44.30
2017-07-16T17:32:53.060Z,44.00
2017-07-16T17:35:21.884Z,45.50
2017-07-16T17:37:49.931Z,45.30
2017-07-16T17:40:18.855Z,45.50
2017-07-16T17:42:46.930Z,45.50
2017-07-16T17:45:14.984Z,45.90
2017-07-16T17:47:43.066Z,44.60
2017-07-16T17:50:11.155Z,44.50
2017-07-16T17:52:39.214Z,44.40
2017-07-16T17:55:07.391Z,44.90
2017-07-16T17:57:35.457Z,45.20
2017-07-16T18:00:03.544Z,45.20
2017-07-16T18:02:31.710Z,45.90
2017-07-16T18:04:59.774Z,45.40
2017-07-16T18:07:27.862Z,45.80
2017-07-16T18:09:55.922Z,46.20
2017-07-16T18:12:24.099Z,46.20
2017-07-16T18:14:52.155Z,46.40
2017-07-16T18:17:20.242Z,46.90
2017-07-16T18:19:48.334Z,46.80
2017-07-16T18:22:17.271Z,46.70
2017-07-16T18:24:45.483Z,46.80
2017-07-16T18:27:13.658Z,47.60
2017-07-16T18:29:41.712Z,47.60
2017-07-16T18:32:09.763Z,47.60
2017-07-16T18:34:38.691Z,47.80
2017-07-16T18:37:06.758Z,47.80
2017-07-16T18:39:34.811Z,47.60
2017-07-16T18:42:02.889Z,48.30
2017-07-16T18:44:30.950Z,48.10
2017-07-16T18:46:59.767Z,48.70
2017-07-16T18:49:27.969Z,48.60
2017-07-16T18:51:56.042Z,49.00
2017-07-16T18:54:24.205Z,49.50
2017-07-16T18:59:52.807Z,49.30
2017-07-16T19:02:20.859Z,49.30
2017-07-16T19:04:48.917Z,49.50
2017-07-16T19:07:17.008Z,49.30
2017-07-16T19:09:45.071Z,50.80
2017-07-16T19:12:13.127Z,50.80
2017-07-16T19:14:41.203Z,50.20
2017-07-16T19:17:09.254Z,51.20
2017-07-16T19:19:37.330Z,52.10
2017-07-16T19:22:06.167Z,53.30
2017-07-16T19:24:34.252Z,53.30
2017-07-16T19:27:02.339Z,53.30
2017-07-16T19:29:30.396Z,53.70
2017-07-16T19:31:58.451Z,54.00
2017-07-16T19:34:26.552Z,54.90
2017-07-16T19:36:54.611Z,53.90
2017-07-16T19:39:22.667Z,54.10
2017-07-16T19:41:50.759Z,54.90
2017-07-16T19:44:18.822Z,54.70
2017-07-16T19:46:46.874Z,54.00
2017-07-16T19:49:14.964Z,54.40
2017-07-16T19:51:43.021Z,54.60
2017-07-16T19:54:11.075Z,54.40
2017-07-16T19:56:39.182Z,54.00
2017-07-16T19:59:07.219Z,54.40
2017-07-16T20:01:35.283Z,55.30
2017-07-16T20:04:03.374Z,54.60
2017-07-16T20:06:32.215Z,54.80
2017-07-16T20:09:00.270Z,54.80
2017-07-16T20:11:28.367Z,55.40
2017-07-16T20:13:57.191Z,56.20
2017-07-16T20:16:25.247Z,56.20
2017-07-16T20:18:53.338Z,56.50
2017-07-16T20:21:21.395Z,56.80
2017-07-16T20:23:49.458Z,56.70
2017-07-16T20:26:17.543Z,57.20
2017-07-16T20:28:45.597Z,56.50
2017-07-16T20:31:14.419Z,57.10
2017-07-16T20:33:42.515Z,57.10
2017-07-16T20:36:10.574Z,57.30
2017-07-16T20:38:38.627Z,56.90
2017-07-16T20:41:06.703Z,57.80
2017-07-16T20:43:34.778Z,57.90
2017-07-16T20:46:02.848Z,58.10
2017-07-16T20:48:30.903Z,58.40
2017-07-16T20:50:59.170Z,58.90
2017-07-16T20:53:27.215Z,59.50
2017-07-16T20:55:55.299Z,59.40
2017-07-16T20:58:24.127Z,59.80
2017-07-16T21:00:52.182Z,59.70
2017-07-16T21:03:20.264Z,60.20
2017-07-16T21:05:48.356Z,59.80
2017-07-16T21:08:16.414Z,60.40
2017-07-16T21:10:44.472Z,60.50
2017-07-16T21:13:12.554Z,60.80
2017-07-16T21:15:40.620Z,60.60
2017-07-16T21:18:08.668Z,60.70
2017-07-16T21:20:37.525Z,59.80
2017-07-16T21:23:05.577Z,59.80
2017-07-16T21:25:33.628Z,60.10
2017-07-16T21:28:01.719Z,60.00
2017-07-16T21:30:29.777Z,59.90
2017-07-16T21:32:57.839Z,59.90
2017-07-16T21:35:25.915Z,59.50
2017-07-16T21:37:53.966Z,60.00
2017-07-16T21:40:22.819Z,60.90
2017-07-16T21:42:50.881Z,60.80
2017-07-16T21:45:18.930Z,60.30
2017-07-16T21:47:47.020Z,61.00
2017-07-16T21:50:15.071Z,61.50
2017-07-16T21:52:43.131Z,61.00
2017-07-16T21:55:11.223Z,61.30
2017-07-16T21:57:39.279Z,61.10
2017-07-16T22:00:07.337Z,60.60
2017-07-16T22:02:35.427Z,61.00
2017-07-16T22:05:03.502Z,61.30
2017-07-16T22:07:31.602Z,61.20
2017-07-16T22:09:59.659Z,61.60
2017-07-16T22:12:27.720Z,61.10
2017-07-16T22:14:55.796Z,60.20
2017-07-16T22:17:23.876Z,60.10
2017-07-16T22:19:51.967Z,60.20
2017-07-16T22:22:20.026Z,60.30
2017-07-16T22:24:48.084Z,60.50
2017-07-16T22:27:16.472Z,60.60
2017-07-16T22:29:44.522Z,61.10
2017-07-16T22:32:12.595Z,61.30
2017-07-16T22:34:40.701Z,60.80
2017-07-16T22:37:09.152Z,60.80
2017-07-16T22:39:37.211Z,61.00
2017-07-16T22:42:05.296Z,61.30
2017-07-16T22:44:33.387Z,62.10
2017-07-16T22:47:01.847Z,62.50
2017-07-16T22:49:29.906Z,62.60
2017-07-16T22:51:58.383Z,62.30
2017-07-16T22:54:26.835Z,61.70
2017-07-16T22:56:55.283Z,61.70
2017-07-16T22:59:23.374Z,62.40
2017-07-16T23:01:51.832Z,62.70
2017-07-16T23:04:19.887Z,62.50
2017-07-16T23:06:48.359Z,62.70
2017-07-16T23:09:16.410Z,62.60
2017-07-16T23:11:45.266Z,62.60
2017-07-16T23:14:13.323Z,62.00
2017-07-16T23:16:41.780Z,61.80
2017-07-16T23:19:10.174Z,62.10
2017-07-16T23:21:38.623Z,62.70
2017-07-16T23:24:06.678Z,62.90
2017-07-16T23:26:35.563Z,63.30
2017-07-16T23:29:04.015Z,62.00
2017-07-16T23:31:32.085Z,62.50
2017-07-16T23:34:00.168Z,62.80
2017-07-16T23:36:28.624Z,62.60
2017-07-16T23:38:56.682Z,62.80
2017-07-16T23:41:24.758Z,63.00
2017-07-16T23:43:53.586Z,63.70
2017-07-16T23:46:22.071Z,64.00
2017-07-16T23:48:50.126Z,64.20
2017-07-16T23:51:18.188Z,64.60
2017-07-16T23:53:46.684Z,64.80
2017-07-16T23:56:14.738Z,63.80
2017-07-16T23:58:42.839Z,64.30
